sensor_id;sensor_type;location;lat;lon;timestamp;temperature;humidity
17879;DHT22;9065;51.050;13.758;2023-03-26T00:01:45;11.10;99.90
17879;DHT22;9065;51.050;13.758;2023-03-26T00:04:15;11.10;99.90
17879;DHT22;9065;51.050;13.758;2023-03-26T00:06:44;11.00;99.90
17879;DHT22;9065;51.050;13.758;2023-03-26T00:09:14;11.00;99.90
17879;DHT22;9065;51.050;13.758;2023-03-26T00:11:41;11.00;99.90
17879;DHT22;9065;51.050;13.758;2023-03-26T00:14:10;10.90;99.90
17879;DHT22;9065;51.050;13.758;2023-03-26T00:16:39;10.90;99.90
17879;DHT22;9065;51.050;13.758;2023-03-26T00:19:08;10.90;99.90
17879;DHT22;9065;51.050;13.758;2023-03-26T00:21:36;10.90;99.90
17879;DHT22;9065;51.050;13.758;2023-03-26T00:24:05;10.90;99.90
17879;DHT22;9065;51.050;13.758;2023-03-26T00:26:34;10.90;99.90
17879;DHT22;9065;51.050;13.758;2023-03-26T00:29:02;10.90;99.90
17879;DHT22;9065;51.050;13.758;2023-03-26T00:31:33;10.90;99.90
17879;DHT22;9065;51.050;13.758;2023-03-26T00:34:02;10.90;99.90
17879;DHT22;9065;51.050;13.758;2023-03-26T00:36:30;10.90;99.90
17879;DHT22;9065;51.050;13.758;2023-03-26T00:39:02;10.90;99.90
17879;DHT22;9065;51.050;13.758;2023-03-26T00:41:30;10.90;99.90
17879;DHT22;9065;51.050;13.758;2023-03-26T00:44:01;10.90;99.90
17879;DHT22;9065;51.050;13.758;2023-03-26T00:46:31;10.90;99.90
17879;DHT22;9065;51.050;13.758;2023-03-26T00:48:58;10.80;99.90
17879;DHT22;9065;51.050;13.758;2023-03-26T00:51:27;10.90;99.90
17879;DHT22;9065;51.050;13.758;2023-03-26T00:53:55;10.80;99.90
17879;DHT22;9065;51.050;13.758;2023-03-26T00:56:23;10.70;99.90
17879;DHT22;9065;51.050;13.758;2023-03-26T00:58:50;10.70;99.90
17879;DHT22;9065;51.050;13.758;2023-03-26T01:01:18;10.70;99.90
17879;DHT22;9065;51.050;13.758;2023-03-26T01:03:51;10.70;99.90
17879;DHT22;9065;51.050;13.758;2023-03-26T01:06:26;10.70;99.90
17879;DHT22;9065;51.050;13.758;2023-03-26T01:09:01;10.80;99.90
17879;DHT22;9065;51.050;13.758;2023-03-26T01:11:32;10.80;99.90
17879;DHT22;9065;51.050;13.758;2023-03-26T01:14:03;10.80;99.90
17879;DHT22;9065;51.050;13.758;2023-03-26T01:16:35;10.80;99.90
17879;DHT22;9065;51.050;13.758;2023-03-26T01:19:04;10.80;99.90
17879;DHT22;9065;51.050;13.758;2023-03-26T01:21:35;10.80;99.90
17879;DHT22;9065;51.050;13.758;2023-03-26T01:24:05;10.90;99.90
17879;DHT22;9065;51.050;13.758;2023-03-26T01:26:56;10.80;99.90
17879;DHT22;9065;51.050;13.758;2023-03-26T01:29:31;10.80;99.90
17879;DHT22;9065;51.050;13.758;2023-03-26T01:32:20;10.90;99.90
17879;DHT22;9065;51.050;13.758;2023-03-26T01:34:57;10.80;99.90
17879;DHT22;9065;51.050;13.758;2023-03-26T01:37:35;10.80;99.90
17879;DHT22;9065;51.050;13.758;2023-03-26T01:40:11;10.80;99.90
17879;DHT22;9065;51.050;13.758;2023-03-26T01:42:44;10.70;99.90
17879;DHT22;9065;51.050;13.758;2023-03-26T01:45:15;10.70;99.90
17879;DHT22;9065;51.050;13.758;2023-03-26T01:47:44;10.70;99.90
17879;DHT22;9065;51.050;13.758;2023-03-26T01:50:12;10.60;99.90
17879;DHT22;9065;51.050;13.758;2023-03-26T01:52:39;10.50;99.90
17879;DHT22;9065;51.050;13.758;2023-03-26T01:55:08;10.40;99.90
17879;DHT22;9065;51.050;13.758;2023-03-26T01:57:46;10.40;99.90
17879;DHT22;9065;51.050;13.758;2023-03-26T02:00:24;10.30;99.90
17879;DHT22;9065;51.050;13.758;2023-03-26T02:03:11;10.20;99.90
17879;DHT22;9065;51.050;13.758;2023-03-26T02:05:48;10.20;99.90
17879;DHT22;9065;51.050;13.758;2023-03-26T02:08:18;10.10;99.90
17879;DHT22;9065;51.050;13.758;2023-03-26T02:10:51;10.10;99.90
17879;DHT22;9065;51.050;13.758;2023-03-26T02:13:19;10.10;99.90
17879;DHT22;9065;51.050;13.758;2023-03-26T02:15:57;10.00;99.90
17879;DHT22;9065;51.050;13.758;2023-03-26T02:18:26;10.00;99.90
17879;DHT22;9065;51.050;13.758;2023-03-26T02:21:01;10.00;99.90
17879;DHT22;9065;51.050;13.758;2023-03-26T02:23:28;10.00;99.90
17879;DHT22;9065;51.050;13.758;2023-03-26T02:26:04;10.00;99.90
17879;DHT22;9065;51.050;13.758;2023-03-26T02:28:32;10.00;99.90
17879;DHT22;9065;51.050;13.758;2023-03-26T02:30:59;10.00;99.90
17879;DHT22;9065;51.050;13.758;2023-03-26T02:33:26;10.00;99.90
17879;DHT22;9065;51.050;13.758;2023-03-26T02:35:53;10.10;99.90
17879;DHT22;9065;51.050;13.758;2023-03-26T02:38:24;10.00;99.90
17879;DHT22;9065;51.050;13.758;2023-03-26T02:40:52;10.10;99.90
17879;DHT22;9065;51.050;13.758;2023-03-26T02:43:21;10.10;99.90
17879;DHT22;9065;51.050;13.758;2023-03-26T02:45:48;10.10;99.90
17879;DHT22;9065;51.050;13.758;2023-03-26T02:48:14;10.10;99.90
17879;DHT22;9065;51.050;13.758;2023-03-26T02:50:41;10.10;99.90
17879;DHT22;9065;51.050;13.758;2023-03-26T02:53:08;10.00;99.90
17879;DHT22;9065;51.050;13.758;2023-03-26T02:55:36;10.10;99.90
17879;DHT22;9065;51.050;13.758;2023-03-26T02:58:03;10.00;99.90
17879;DHT22;9065;51.050;13.758;2023-03-26T03:00:32;9.90;99.90
17879;DHT22;9065;51.050;13.758;2023-03-26T03:03:00;9.90;99.90
17879;DHT22;9065;51.050;13.758;2023-03-26T03:05:30;10.00;99.90
17879;DHT22;9065;51.050;13.758;2023-03-26T03:07:57;10.00;99.90
17879;DHT22;9065;51.050;13.758;2023-03-26T03:10:24;10.00;99.90
17879;DHT22;9065;51.050;13.758;2023-03-26T03:12:52;10.10;99.90
17879;DHT22;9065;51.050;13.758;2023-03-26T03:15:19;10.10;99.90
17879;DHT22;9065;51.050;13.758;2023-03-26T03:17:47;10.20;99.90
17879;DHT22;9065;51.050;13.758;2023-03-26T03:20:14;10.20;99.90
17879;DHT22;9065;51.050;13.758;2023-03-26T03:22:42;10.20;99.90
17879;DHT22;9065;51.050;13.758;2023-03-26T03:25:09;10.20;99.90
17879;DHT22;9065;51.050;13.758;2023-03-26T03:27:39;10.10;99.90
17879;DHT22;9065;51.050;13.758;2023-03-26T03:30:07;10.00;99.90
17879;DHT22;9065;51.050;13.758;2023-03-26T03:32:35;10.10;99.90
17879;DHT22;9065;51.050;13.758;2023-03-26T03:35:04;10.10;99.90
17879;DHT22;9065;51.050;13.758;2023-03-26T03:37:31;10.20;99.90
17879;DHT22;9065;51.050;13.758;2023-03-26T03:39:58;10.20;99.90
17879;DHT22;9065;51.050;13.758;2023-03-26T03:42:25;10.20;99.90
17879;DHT22;9065;51.050;13.758;2023-03-26T03:44:53;10.10;99.90
17879;DHT22;9065;51.050;13.758;2023-03-26T03:47:20;10.10;99.90
17879;DHT22;9065;51.050;13.758;2023-03-26T03:49:47;9.90;99.90
17879;DHT22;9065;51.050;13.758;2023-03-26T03:52:17;10.00;99.90
17879;DHT22;9065;51.050;13.758;2023-03-26T03:54:44;10.00;99.90
17879;DHT22;9065;51.050;13.758;2023-03-26T03:57:10;10.00;99.90
17879;DHT22;9065;51.050;13.758;2023-03-26T03:59:38;10.10;99.90
17879;DHT22;9065;51.050;13.758;2023-03-26T04:02:05;10.20;99.90
17879;DHT22;9065;51.050;13.758;2023-03-26T04:04:32;10.10;99.90
17879;DHT22;9065;51.050;13.758;2023-03-26T04:06:58;10.10;99.90
17879;DHT22;9065;51.050;13.758;2023-03-26T04:09:26;10.20;99.90
17879;DHT22;9065;51.050;13.758;2023-03-26T04:11:53;10.10;99.90
17879;DHT22;9065;51.050;13.758;2023-03-26T04:14:20;10.10;99.90
17879;DHT22;9065;51.050;13.758;2023-03-26T04:16:47;10.20;99.90
17879;DHT22;9065;51.050;13.758;2023-03-26T04:19:14;10.30;99.90
17879;DHT22;9065;51.050;13.758;2023-03-26T04:21:43;10.20;99.90
17879;DHT22;9065;51.050;13.758;2023-03-26T04:24:09;10.30;99.90
17879;DHT22;9065;51.050;13.758;2023-03-26T04:26:37;10.20;99.90
17879;DHT22;9065;51.050;13.758;2023-03-26T04:29:06;10.00;99.90
17879;DHT22;9065;51.050;13.758;2023-03-26T04:31:36;10.10;99.90
17879;DHT22;9065;51.050;13.758;2023-03-26T04:34:07;10.20;99.90
17879;DHT22;9065;51.050;13.758;2023-03-26T04:36:38;10.20;99.90
17879;DHT22;9065;51.050;13.758;2023-03-26T04:39:09;10.30;99.90
17879;DHT22;9065;51.050;13.758;2023-03-26T04:41:39;10.30;99.90
17879;DHT22;9065;51.050;13.758;2023-03-26T04:44:05;10.40;99.90
17879;DHT22;9065;51.050;13.758;2023-03-26T04:46:32;10.40;99.90
17879;DHT22;9065;51.050;13.758;2023-03-26T04:49:00;10.40;99.90
17879;DHT22;9065;51.050;13.758;2023-03-26T04:51:32;10.40;99.90
17879;DHT22;9065;51.050;13.758;2023-03-26T04:54:03;10.30;99.90
17879;DHT22;9065;51.050;13.758;2023-03-26T04:56:38;10.30;99.90
17879;DHT22;9065;51.050;13.758;2023-03-26T04:59:09;10.30;99.90
17879;DHT22;9065;51.050;13.758;2023-03-26T05:01:39;10.30;99.90
17879;DHT22;9065;51.050;13.758;2023-03-26T05:04:06;10.30;99.90
17879;DHT22;9065;51.050;13.758;2023-03-26T05:06:33;10.40;99.90
17879;DHT22;9065;51.050;13.758;2023-03-26T05:09:03;10.40;99.90
17879;DHT22;9065;51.050;13.758;2023-03-26T05:11:29;10.50;99.90
17879;DHT22;9065;51.050;13.758;2023-03-26T05:13:58;10.40;99.90
17879;DHT22;9065;51.050;13.758;2023-03-26T05:16:26;10.50;99.90
17879;DHT22;9065;51.050;13.758;2023-03-26T05:18:53;10.50;99.90
17879;DHT22;9065;51.050;13.758;2023-03-26T05:21:20;10.40;99.90
17879;DHT22;9065;51.050;13.758;2023-03-26T05:23:46;10.50;99.90
17879;DHT22;9065;51.050;13.758;2023-03-26T05:26:13;10.50;99.90
17879;DHT22;9065;51.050;13.758;2023-03-26T05:28:40;10.40;99.90
17879;DHT22;9065;51.050;13.758;2023-03-26T05:31:09;10.40;99.90
17879;DHT22;9065;51.050;13.758;2023-03-26T05:33:36;10.40;99.90
17879;DHT22;9065;51.050;13.758;2023-03-26T05:36:05;10.30;99.90
17879;DHT22;9065;51.050;13.758;2023-03-26T05:38:34;10.40;99.90
17879;DHT22;9065;51.050;13.758;2023-03-26T05:41:03;10.40;99.90
17879;DHT22;9065;51.050;13.758;2023-03-26T05:43:30;10.40;99.90
17879;DHT22;9065;51.050;13.758;2023-03-26T05:45:57;10.40;99.90
17879;DHT22;9065;51.050;13.758;2023-03-26T05:48:26;10.40;99.90
17879;DHT22;9065;51.050;13.758;2023-03-26T05:50:55;10.50;99.90
17879;DHT22;9065;51.050;13.758;2023-03-26T05:53:23;10.40;99.90
17879;DHT22;9065;51.050;13.758;2023-03-26T05:55:50;10.40;99.90
17879;DHT22;9065;51.050;13.758;2023-03-26T05:58:22;10.50;99.90
17879;DHT22;9065;51.050;13.758;2023-03-26T06:00:56;10.60;99.90
17879;DHT22;9065;51.050;13.758;2023-03-26T06:03:27;10.60;99.90
17879;DHT22;9065;51.050;13.758;2023-03-26T06:05:54;10.60;99.90
17879;DHT22;9065;51.050;13.758;2023-03-26T06:08:21;10.60;99.90
17879;DHT22;9065;51.050;13.758;2023-03-26T06:10:48;10.70;99.90
17879;DHT22;9065;51.050;13.758;2023-03-26T06:13:15;10.80;99.90
17879;DHT22;9065;51.050;13.758;2023-03-26T06:15:42;10.90;99.90
17879;DHT22;9065;51.050;13.758;2023-03-26T06:18:09;10.90;99.90
17879;DHT22;9065;51.050;13.758;2023-03-26T06:20:40;11.00;99.90
17879;DHT22;9065;51.050;13.758;2023-03-26T06:23:06;11.10;99.90
17879;DHT22;9065;51.050;13.758;2023-03-26T06:25:33;11.20;99.90
17879;DHT22;9065;51.050;13.758;2023-03-26T06:28:00;11.10;99.90
17879;DHT22;9065;51.050;13.758;2023-03-26T06:30:27;11.10;99.90
17879;DHT22;9065;51.050;13.758;2023-03-26T06:32:53;11.00;99.90
17879;DHT22;9065;51.050;13.758;2023-03-26T06:35:20;11.10;99.90
17879;DHT22;9065;51.050;13.758;2023-03-26T06:37:49;11.20;99.90
17879;DHT22;9065;51.050;13.758;2023-03-26T06:40:15;11.30;99.90
17879;DHT22;9065;51.050;13.758;2023-03-26T06:42:42;11.30;99.90
17879;DHT22;9065;51.050;13.758;2023-03-26T06:45:09;11.30;99.90
17879;DHT22;9065;51.050;13.758;2023-03-26T06:47:36;11.40;99.90
17879;DHT22;9065;51.050;13.758;2023-03-26T06:50:04;11.60;99.90
17879;DHT22;9065;51.050;13.758;2023-03-26T06:52:32;11.60;99.90
17879;DHT22;9065;51.050;13.758;2023-03-26T06:55:00;11.70;99.90
17879;DHT22;9065;51.050;13.758;2023-03-26T06:57:27;11.80;99.90
17879;DHT22;9065;51.050;13.758;2023-03-26T06:59:53;12.00;99.90
17879;DHT22;9065;51.050;13.758;2023-03-26T07:02:20;12.00;99.90
17879;DHT22;9065;51.050;13.758;2023-03-26T07:04:47;12.00;99.90
17879;DHT22;9065;51.050;13.758;2023-03-26T07:07:14;12.10;99.90
17879;DHT22;9065;51.050;13.758;2023-03-26T07:09:41;12.10;99.90
17879;DHT22;9065;51.050;13.758;2023-03-26T07:12:09;12.10;99.90
17879;DHT22;9065;51.050;13.758;2023-03-26T07:14:37;12.10;99.90
17879;DHT22;9065;51.050;13.758;2023-03-26T07:17:05;12.10;99.90
17879;DHT22;9065;51.050;13.758;2023-03-26T07:19:32;12.10;99.90
17879;DHT22;9065;51.050;13.758;2023-03-26T07:22:00;12.20;99.90
17879;DHT22;9065;51.050;13.758;2023-03-26T07:24:27;12.10;99.90
17879;DHT22;9065;51.050;13.758;2023-03-26T07:26:59;12.20;99.90
17879;DHT22;9065;51.050;13.758;2023-03-26T07:29:34;12.30;99.90
17879;DHT22;9065;51.050;13.758;2023-03-26T07:32:08;12.30;99.90
17879;DHT22;9065;51.050;13.758;2023-03-26T07:34:45;12.40;99.90
17879;DHT22;9065;51.050;13.758;2023-03-26T07:37:26;12.40;99.90
17879;DHT22;9065;51.050;13.758;2023-03-26T07:40:02;12.50;99.90
17879;DHT22;9065;51.050;13.758;2023-03-26T07:42:49;12.50;99.90
17879;DHT22;9065;51.050;13.758;2023-03-26T07:45:24;12.50;99.90
17879;DHT22;9065;51.050;13.758;2023-03-26T07:47:53;12.60;99.90
17879;DHT22;9065;51.050;13.758;2023-03-26T07:50:23;12.50;99.90
17879;DHT22;9065;51.050;13.758;2023-03-26T07:52:50;12.60;99.90
17879;DHT22;9065;51.050;13.758;2023-03-26T07:55:18;12.80;99.90
17879;DHT22;9065;51.050;13.758;2023-03-26T07:57:54;13.10;99.90
17879;DHT22;9065;51.050;13.758;2023-03-26T08:00:29;13.40;99.90
17879;DHT22;9065;51.050;13.758;2023-03-26T08:03:28;13.80;99.90
17879;DHT22;9065;51.050;13.758;2023-03-26T08:06:04;14.20;99.90
17879;DHT22;9065;51.050;13.758;2023-03-26T08:08:40;14.20;99.90
17879;DHT22;9065;51.050;13.758;2023-03-26T08:11:18;13.90;99.90
17879;DHT22;9065;51.050;13.758;2023-03-26T08:13:57;13.90;99.90
17879;DHT22;9065;51.050;13.758;2023-03-26T08:16:30;13.70;99.90
17879;DHT22;9065;51.050;13.758;2023-03-26T08:19:07;13.50;99.90
17879;DHT22;9065;51.050;13.758;2023-03-26T08:21:40;13.60;99.90
17879;DHT22;9065;51.050;13.758;2023-03-26T08:24:17;13.50;99.90
17879;DHT22;9065;51.050;13.758;2023-03-26T08:26:52;13.40;99.90
17879;DHT22;9065;51.050;13.758;2023-03-26T08:29:28;13.40;99.90
17879;DHT22;9065;51.050;13.758;2023-03-26T08:32:03;13.30;99.90
17879;DHT22;9065;51.050;13.758;2023-03-26T08:34:30;13.20;99.90
17879;DHT22;9065;51.050;13.758;2023-03-26T08:36:57;13.20;99.90
17879;DHT22;9065;51.050;13.758;2023-03-26T08:39:24;13.30;99.90
17879;DHT22;9065;51.050;13.758;2023-03-26T08:42:45;13.30;99.90
17879;DHT22;9065;51.050;13.758;2023-03-26T08:49:01;13.00;99.90
17879;DHT22;9065;51.050;13.758;2023-03-26T08:52:05;13.00;99.90
17879;DHT22;9065;51.050;13.758;2023-03-26T08:55:06;13.10;99.90
17879;DHT22;9065;51.050;13.758;2023-03-26T08:57:57;13.30;99.90
17879;DHT22;9065;51.050;13.758;2023-03-26T09:00:47;13.40;99.90
17879;DHT22;9065;51.050;13.758;2023-03-26T09:03:38;13.30;99.90
17879;DHT22;9065;51.050;13.758;2023-03-26T09:09:58;13.30;99.90
17879;DHT22;9065;51.050;13.758;2023-03-26T09:12:43;13.60;99.90
17879;DHT22;9065;51.050;13.758;2023-03-26T09:15:48;13.60;99.90
17879;DHT22;9065;51.050;13.758;2023-03-26T09:21:31;13.40;99.90
17879;DHT22;9065;51.050;13.758;2023-03-26T09:24:32;13.50;99.90
17879;DHT22;9065;51.050;13.758;2023-03-26T09:27:22;13.70;99.90
17879;DHT22;9065;51.050;13.758;2023-03-26T09:30:27;13.70;99.90
17879;DHT22;9065;51.050;13.758;2023-03-26T09:33:25;13.80;99.90
17879;DHT22;9065;51.050;13.758;2023-03-26T09:36:06;13.80;99.90
17879;DHT22;9065;51.050;13.758;2023-03-26T09:38:42;13.60;99.90
17879;DHT22;9065;51.050;13.758;2023-03-26T09:41:15;13.80;99.90
17879;DHT22;9065;51.050;13.758;2023-03-26T09:47:00;14.50;99.90
17879;DHT22;9065;51.050;13.758;2023-03-26T09:49:41;14.80;99.90
17879;DHT22;9065;51.050;13.758;2023-03-26T09:55:37;15.80;99.90
17879;DHT22;9065;51.050;13.758;2023-03-26T09:58:31;16.70;99.90
17879;DHT22;9065;51.050;13.758;2023-03-26T10:01:17;17.00;99.90
17879;DHT22;9065;51.050;13.758;2023-03-26T10:03:56;17.40;99.90
17879;DHT22;9065;51.050;13.758;2023-03-26T10:06:38;18.50;99.90
17879;DHT22;9065;51.050;13.758;2023-03-26T10:09:24;19.30;99.90
17879;DHT22;9065;51.050;13.758;2023-03-26T10:12:07;19.50;99.90
17879;DHT22;9065;51.050;13.758;2023-03-26T10:14:41;19.30;99.90
17879;DHT22;9065;51.050;13.758;2023-03-26T10:17:23;18.90;99.90
17879;DHT22;9065;51.050;13.758;2023-03-26T10:20:11;18.40;99.90
17879;DHT22;9065;51.050;13.758;2023-03-26T10:22:59;19.50;99.90
17879;DHT22;9065;51.050;13.758;2023-03-26T10:25:42;21.10;99.90
17879;DHT22;9065;51.050;13.758;2023-03-26T10:28:29;20.90;99.90
17879;DHT22;9065;51.050;13.758;2023-03-26T10:31:19;20.30;99.90
17879;DHT22;9065;51.050;13.758;2023-03-26T10:34:00;19.80;99.90
17879;DHT22;9065;51.050;13.758;2023-03-26T10:36:33;20.20;99.90
17879;DHT22;9065;51.050;13.758;2023-03-26T10:39:20;19.90;99.90
17879;DHT22;9065;51.050;13.758;2023-03-26T10:41:57;20.60;99.90
17879;DHT22;9065;51.050;13.758;2023-03-26T10:44:48;22.20;99.90
17879;DHT22;9065;51.050;13.758;2023-03-26T10:47:28;23.00;99.90
17879;DHT22;9065;51.050;13.758;2023-03-26T10:50:26;23.60;99.90
17879;DHT22;9065;51.050;13.758;2023-03-26T10:52:58;26.00;99.90
17879;DHT22;9065;51.050;13.758;2023-03-26T10:55:30;29.30;97.40
17879;DHT22;9065;51.050;13.758;2023-03-26T10:58:00;32.20;90.30
17879;DHT22;9065;51.050;13.758;2023-03-26T11:00:36;34.00;81.30
17879;DHT22;9065;51.050;13.758;2023-03-26T11:03:25;34.70;73.80
17879;DHT22;9065;51.050;13.758;2023-03-26T11:06:06;33.80;70.70
17879;DHT22;9065;51.050;13.758;2023-03-26T11:08:40;33.20;71.10
17879;DHT22;9065;51.050;13.758;2023-03-26T11:11:18;32.10;68.80
17879;DHT22;9065;51.050;13.758;2023-03-26T11:13:53;30.20;71.50
17879;DHT22;9065;51.050;13.758;2023-03-26T11:16:32;28.30;72.40
17879;DHT22;9065;51.050;13.758;2023-03-26T11:19:06;27.20;74.80
17879;DHT22;9065;51.050;13.758;2023-03-26T11:21:45;25.70;79.50
17879;DHT22;9065;51.050;13.758;2023-03-26T11:24:30;23.90;80.60
17879;DHT22;9065;51.050;13.758;2023-03-26T11:27:03;23.10;80.60
17879;DHT22;9065;51.050;13.758;2023-03-26T11:29:41;22.60;85.10
17879;DHT22;9065;51.050;13.758;2023-03-26T11:32:10;21.90;82.40
17879;DHT22;9065;51.050;13.758;2023-03-26T11:34:39;21.50;84.30
17879;DHT22;9065;51.050;13.758;2023-03-26T11:37:14;21.40;83.90
17879;DHT22;9065;51.050;13.758;2023-03-26T11:39:48;20.90;85.70
17879;DHT22;9065;51.050;13.758;2023-03-26T11:42:18;20.50;86.90
17879;DHT22;9065;51.050;13.758;2023-03-26T11:44:52;20.20;88.00
17879;DHT22;9065;51.050;13.758;2023-03-26T11:47:23;19.70;90.70
17879;DHT22;9065;51.050;13.758;2023-03-26T11:49:56;19.20;92.70
17879;DHT22;9065;51.050;13.758;2023-03-26T11:52:26;18.60;91.70
17879;DHT22;9065;51.050;13.758;2023-03-26T11:54:53;18.10;92.70
17879;DHT22;9065;51.050;13.758;2023-03-26T11:57:26;17.90;93.80
17879;DHT22;9065;51.050;13.758;2023-03-26T11:59:57;17.80;94.90
17879;DHT22;9065;51.050;13.758;2023-03-26T12:02:30;17.90;95.80
17879;DHT22;9065;51.050;13.758;2023-03-26T12:05:15;17.90;96.90
17879;DHT22;9065;51.050;13.758;2023-03-26T12:07:50;18.00;97.00
17879;DHT22;9065;51.050;13.758;2023-03-26T12:10:24;18.00;97.10
17879;DHT22;9065;51.050;13.758;2023-03-26T12:12:55;18.00;97.70
17879;DHT22;9065;51.050;13.758;2023-03-26T12:15:22;17.80;97.40
17879;DHT22;9065;51.050;13.758;2023-03-26T12:17:52;17.60;98.00
17879;DHT22;9065;51.050;13.758;2023-03-26T12:20:34;17.30;99.90
17879;DHT22;9065;51.050;13.758;2023-03-26T12:23:05;17.20;99.90
17879;DHT22;9065;51.050;13.758;2023-03-26T12:25:34;17.10;99.90
17879;DHT22;9065;51.050;13.758;2023-03-26T12:28:03;17.00;99.90
17879;DHT22;9065;51.050;13.758;2023-03-26T12:30:32;16.90;99.90
17879;DHT22;9065;51.050;13.758;2023-03-26T12:33:03;16.90;99.90
17879;DHT22;9065;51.050;13.758;2023-03-26T12:35:33;16.70;99.90
17879;DHT22;9065;51.050;13.758;2023-03-26T12:38:23;16.60;99.90
17879;DHT22;9065;51.050;13.758;2023-03-26T12:41:04;16.40;99.90
17879;DHT22;9065;51.050;13.758;2023-03-26T12:43:37;16.20;99.90
17879;DHT22;9065;51.050;13.758;2023-03-26T12:46:19;16.10;99.90
17879;DHT22;9065;51.050;13.758;2023-03-26T12:48:48;16.00;99.90
17879;DHT22;9065;51.050;13.758;2023-03-26T12:51:22;15.90;99.90
17879;DHT22;9065;51.050;13.758;2023-03-26T12:54:01;15.80;99.90
17879;DHT22;9065;51.050;13.758;2023-03-26T12:56:39;15.70;99.90
17879;DHT22;9065;51.050;13.758;2023-03-26T12:59:19;15.90;99.90
17879;DHT22;9065;51.050;13.758;2023-03-26T13:01:54;16.00;99.90
17879;DHT22;9065;51.050;13.758;2023-03-26T13:04:52;16.00;99.90
17879;DHT22;9065;51.050;13.758;2023-03-26T13:07:27;15.90;99.90
17879;DHT22;9065;51.050;13.758;2023-03-26T13:10:29;15.90;99.90
17879;DHT22;9065;51.050;13.758;2023-03-26T13:13:10;15.80;99.90
17879;DHT22;9065;51.050;13.758;2023-03-26T13:15:44;15.90;99.90
17879;DHT22;9065;51.050;13.758;2023-03-26T13:18:22;15.90;99.90
17879;DHT22;9065;51.050;13.758;2023-03-26T13:20:56;15.90;99.90
17879;DHT22;9065;51.050;13.758;2023-03-26T13:23:35;15.90;99.90
17879;DHT22;9065;51.050;13.758;2023-03-26T13:26:12;15.90;99.90
17879;DHT22;9065;51.050;13.758;2023-03-26T13:28:50;15.90;99.90
17879;DHT22;9065;51.050;13.758;2023-03-26T13:31:24;16.00;99.90
17879;DHT22;9065;51.050;13.758;2023-03-26T13:33:59;15.90;99.90
17879;DHT22;9065;51.050;13.758;2023-03-26T13:36:35;15.80;99.90
17879;DHT22;9065;51.050;13.758;2023-03-26T13:39:18;15.90;99.90
17879;DHT22;9065;51.050;13.758;2023-03-26T13:42:01;16.00;99.90
17879;DHT22;9065;51.050;13.758;2023-03-26T13:44:39;16.10;99.90
17879;DHT22;9065;51.050;13.758;2023-03-26T13:47:15;16.10;99.90
17879;DHT22;9065;51.050;13.758;2023-03-26T13:49:46;16.00;99.90
17879;DHT22;9065;51.050;13.758;2023-03-26T13:52:16;15.90;99.90
17879;DHT22;9065;51.050;13.758;2023-03-26T13:54:48;15.80;99.90
17879;DHT22;9065;51.050;13.758;2023-03-26T13:57:20;15.80;99.90
17879;DHT22;9065;51.050;13.758;2023-03-26T13:59:52;15.60;99.90
17879;DHT22;9065;51.050;13.758;2023-03-26T14:02:26;15.50;99.90
17879;DHT22;9065;51.050;13.758;2023-03-26T14:05:00;15.30;99.90
17879;DHT22;9065;51.050;13.758;2023-03-26T14:07:33;15.00;99.90
17879;DHT22;9065;51.050;13.758;2023-03-26T14:10:07;14.80;99.90
17879;DHT22;9065;51.050;13.758;2023-03-26T14:12:45;14.60;99.90
17879;DHT22;9065;51.050;13.758;2023-03-26T14:15:20;14.60;99.90
17879;DHT22;9065;51.050;13.758;2023-03-26T14:17:52;14.30;99.90
17879;DHT22;9065;51.050;13.758;2023-03-26T14:20:31;14.10;99.90
17879;DHT22;9065;51.050;13.758;2023-03-26T14:23:27;14.00;99.90
17879;DHT22;9065;51.050;13.758;2023-03-26T14:26:15;13.80;99.90
17879;DHT22;9065;51.050;13.758;2023-03-26T14:29:04;13.80;99.90
17879;DHT22;9065;51.050;13.758;2023-03-26T14:31:35;13.80;99.90
17879;DHT22;9065;51.050;13.758;2023-03-26T14:34:23;13.70;99.90
17879;DHT22;9065;51.050;13.758;2023-03-26T14:37:23;13.50;99.90
17879;DHT22;9065;51.050;13.758;2023-03-26T14:40:14;13.40;99.90
17879;DHT22;9065;51.050;13.758;2023-03-26T14:42:52;13.30;99.90
17879;DHT22;9065;51.050;13.758;2023-03-26T14:48:36;13.30;99.90
17879;DHT22;9065;51.050;13.758;2023-03-26T14:51:27;13.30;99.90
17879;DHT22;9065;51.050;13.758;2023-03-26T14:54:00;13.20;99.90
17879;DHT22;9065;51.050;13.758;2023-03-26T14:56:57;13.20;99.90
17879;DHT22;9065;51.050;13.758;2023-03-26T14:59:51;13.30;99.90
17879;DHT22;9065;51.050;13.758;2023-03-26T15:03:06;13.30;99.90
17879;DHT22;9065;51.050;13.758;2023-03-26T15:06:05;13.10;99.90
17879;DHT22;9065;51.050;13.758;2023-03-26T15:09:12;13.00;99.90
17879;DHT22;9065;51.050;13.758;2023-03-26T15:11:52;12.90;99.90
17879;DHT22;9065;51.050;13.758;2023-03-26T15:14:41;12.70;99.90
17879;DHT22;9065;51.050;13.758;2023-03-26T15:30:00;12.50;99.90
17879;DHT22;9065;51.050;13.758;2023-03-26T15:38:53;12.20;99.90
17879;DHT22;9065;51.050;13.758;2023-03-26T15:41:27;12.20;99.90
17879;DHT22;9065;51.050;13.758;2023-03-26T15:44:10;12.00;99.90
17879;DHT22;9065;51.050;13.758;2023-03-26T15:47:15;11.80;99.90
17879;DHT22;9065;51.050;13.758;2023-03-26T15:49:48;11.70;99.90
17879;DHT22;9065;51.050;13.758;2023-03-26T15:52:24;11.70;99.90
17879;DHT22;9065;51.050;13.758;2023-03-26T15:54:59;11.70;99.90
17879;DHT22;9065;51.050;13.758;2023-03-26T15:57:30;11.80;99.90
17879;DHT22;9065;51.050;13.758;2023-03-26T16:00:08;11.80;99.90
17879;DHT22;9065;51.050;13.758;2023-03-26T16:02:44;11.80;99.90
17879;DHT22;9065;51.050;13.758;2023-03-26T16:05:34;11.80;99.90
17879;DHT22;9065;51.050;13.758;2023-03-26T16:08:24;11.70;99.90
17879;DHT22;9065;51.050;13.758;2023-03-26T16:10:55;11.60;99.90
17879;DHT22;9065;51.050;13.758;2023-03-26T16:13:35;11.50;99.90
17879;DHT22;9065;51.050;13.758;2023-03-26T16:16:49;11.50;99.90
17879;DHT22;9065;51.050;13.758;2023-03-26T16:19:45;11.40;99.90
17879;DHT22;9065;51.050;13.758;2023-03-26T16:22:15;11.30;99.90
17879;DHT22;9065;51.050;13.758;2023-03-26T16:25:23;11.20;99.90
17879;DHT22;9065;51.050;13.758;2023-03-26T16:28:15;11.20;99.90
17879;DHT22;9065;51.050;13.758;2023-03-26T16:31:15;11.30;99.90
17879;DHT22;9065;51.050;13.758;2023-03-26T16:33:47;11.20;99.90
17879;DHT22;9065;51.050;13.758;2023-03-26T16:36:25;11.20;99.90
17879;DHT22;9065;51.050;13.758;2023-03-26T16:39:17;11.10;99.90
17879;DHT22;9065;51.050;13.758;2023-03-26T16:41:59;11.10;99.90
17879;DHT22;9065;51.050;13.758;2023-03-26T16:44:32;11.00;99.90
17879;DHT22;9065;51.050;13.758;2023-03-26T16:47:08;11.00;99.90
17879;DHT22;9065;51.050;13.758;2023-03-26T16:49:51;10.90;99.90
17879;DHT22;9065;51.050;13.758;2023-03-26T16:52:24;10.90;99.90
17879;DHT22;9065;51.050;13.758;2023-03-26T16:55:00;10.90;99.90
17879;DHT22;9065;51.050;13.758;2023-03-26T16:57:35;10.90;99.90